createdAt,value
2023-04-02T00:00:35.840Z,94612.34
2023-04-02T00:03:02.366Z,94619.97
2023-04-02T00:05:37.866Z,94616.22
2023-04-02T00:08:18.330Z,94619.56
2023-04-02T00:10:48.855Z,94624.31
2023-04-02T00:13:22.021Z,94617.00
2023-04-02T00:15:50.410Z,94618.44
2023-04-02T00:18:18.990Z,94622.03
2023-04-02T00:20:55.716Z,94625.44
2023-04-02T00:23:22.813Z,94618.59
2023-04-02T00:25:49.347Z,94604.34
2023-04-02T00:28:19.567Z,94601.84
2023-04-02T00:31:06.310Z,94613.19
2023-04-02T00:33:33.223Z,94615.31
2023-04-02T00:35:59.757Z,94616.78
2023-04-02T00:38:35.637Z,94621.69
2023-04-02T00:41:04.350Z,94607.41
2023-04-02T00:43:36.117Z,94608.44
2023-04-02T00:46:05.044Z,94607.72
2023-04-02T00:48:40.337Z,94617.13
2023-04-02T00:51:18.010Z,94619.59
2023-04-02T00:53:46.906Z,94608.00
2023-04-02T00:56:36.707Z,94625.19
2023-04-02T00:59:04.090Z,94615.75
2023-04-02T01:01:36.429Z,94615.19
2023-04-02T01:04:05.097Z,94605.03
2023-04-02T01:06:38.809Z,94611.75
2023-04-02T01:09:36.364Z,94618.06
2023-04-02T01:12:14.955Z,94627.16
2023-04-02T01:15:14.558Z,94623.06
2023-04-02T01:17:53.470Z,94630.66
2023-04-02T01:20:56.790Z,94637.66
2023-04-02T01:23:48.338Z,94633.69
2023-04-02T01:26:46.861Z,94627.94
2023-04-02T01:29:16.236Z,94629.56
2023-04-02T01:31:44.725Z,94633.25
2023-04-02T01:34:14.671Z,94615.53
2023-04-02T01:37:00.181Z,94620.44
2023-04-02T01:39:41.700Z,94626.91
2023-04-02T01:42:11.163Z,94625.50
2023-04-02T01:44:44.398Z,94620.59
2023-04-02T01:47:13.706Z,94629.47
2023-04-02T01:50:03.808Z,94626.66
2023-04-02T01:52:37.080Z,94637.00
2023-04-02T01:55:03.922Z,94630.84
2023-04-02T01:57:31.015Z,94633.78
2023-04-02T01:59:59.794Z,94630.31
2023-04-02T02:02:26.462Z,94631.75
2023-04-02T02:04:53.238Z,94628.25
2023-04-02T02:07:20.702Z,94631.19
2023-04-02T02:09:48.230Z,94637.56
2023-04-02T02:12:15.744Z,94642.81
2023-04-02T02:14:47.755Z,94649.31
2023-04-02T02:17:16.896Z,94644.66
2023-04-02T02:19:52.166Z,94652.16
2023-04-02T02:22:38.266Z,94649.03
2023-04-02T02:25:07.604Z,94653.97
2023-04-02T02:27:48.259Z,94651.81
2023-04-02T02:30:22.064Z,94665.50
2023-04-02T02:33:05.473Z,94663.69
2023-04-02T02:35:41.217Z,94669.13
2023-04-02T02:38:26.434Z,94671.13
2023-04-02T02:40:56.735Z,94671.50
2023-04-02T02:43:23.240Z,94665.72
2023-04-02T02:45:50.905Z,94669.50
2023-04-02T02:48:21.548Z,94656.28
2023-04-02T02:50:48.202Z,94653.38
2023-04-02T02:53:24.804Z,94664.13
2023-04-02T02:55:54.504Z,94654.41
2023-04-02T02:58:25.273Z,94658.97
2023-04-02T03:00:51.995Z,94665.63
2023-04-02T03:03:24.698Z,94662.50
2023-04-02T03:06:03.295Z,94652.56
2023-04-02T03:08:40.580Z,94663.69
2023-04-02T03:11:12.069Z,94663.13
2023-04-02T03:13:39.796Z,94661.50
2023-04-02T03:16:22.105Z,94668.97
2023-04-02T03:19:20.700Z,94672.50
2023-04-02T03:21:52.482Z,94676.28
2023-04-02T03:24:27.153Z,94666.00
2023-04-02T03:27:03.609Z,94671.56
2023-04-02T03:29:32.949Z,94661.09
2023-04-02T03:32:29.544Z,94665.88
2023-04-02T03:35:15.139Z,94662.16
2023-04-02T03:37:48.401Z,94661.78
2023-04-02T03:40:22.433Z,94674.09
2023-04-02T03:42:51.886Z,94671.88
2023-04-02T03:45:23.067Z,94680.44
2023-04-02T03:47:53.489Z,94670.63
2023-04-02T03:50:30.717Z,94683.31
2023-04-02T03:52:58.730Z,94681.13
2023-04-02T03:55:27.354Z,94684.91
2023-04-02T03:58:17.173Z,94682.38
2023-04-02T04:00:57.809Z,94682.50
2023-04-02T04:03:37.338Z,94685.84
2023-04-02T04:06:10.557Z,94678.53
2023-04-02T04:08:46.936Z,94681.69
2023-04-02T04:11:17.180Z,94686.69
2023-04-02T04:13:51.200Z,94685.81
2023-04-02T04:16:21.970Z,94681.13
2023-04-02T04:18:56.058Z,94670.31
2023-04-02T04:21:27.298Z,94682.91
2023-04-02T04:23:53.820Z,94680.41
2023-04-02T04:26:24.355Z,94685.47
2023-04-02T04:28:59.864Z,94694.31
2023-04-02T04:31:47.479Z,94693.13
2023-04-02T04:34:20.332Z,94703.75
2023-04-02T04:36:53.597Z,94693.50
2023-04-02T04:39:41.754Z,94690.81
2023-04-02T04:42:13.918Z,94695.13
2023-04-02T04:44:45.291Z,94699.13
2023-04-02T04:47:20.922Z,94697.97
2023-04-02T04:49:52.583Z,94702.41
2023-04-02T04:52:28.639Z,94703.19
2023-04-02T04:54:55.302Z,94709.16
2023-04-02T04:57:31.081Z,94714.38
2023-04-02T05:00:04.094Z,94707.13
2023-04-02T05:02:35.550Z,94704.88
2023-04-02T05:05:02.746Z,94716.28
2023-04-02T05:07:32.182Z,94708.53
2023-04-02T05:10:13.217Z,94714.09
2023-04-02T05:12:48.247Z,94715.75
2023-04-02T05:15:41.552Z,94728.38
2023-04-02T05:18:16.338Z,94718.78
2023-04-02T05:20:51.379Z,94715.41
2023-04-02T05:23:21.919Z,94716.09
2023-04-02T05:26:13.443Z,94718.34
2023-04-02T05:28:45.032Z,94726.06
2023-04-02T05:31:20.399Z,94721.44
2023-04-02T05:33:48.795Z,94731.25
2023-04-02T05:36:27.450Z,94730.91
2023-04-02T05:38:54.178Z,94733.16
2023-04-02T05:41:26.662Z,94733.28
2023-04-02T05:44:06.601Z,94737.41
2023-04-02T05:46:54.707Z,94735.34
2023-04-02T05:49:39.067Z,94735.34
2023-04-02T05:52:07.985Z,94739.13
2023-04-02T05:54:39.853Z,94741.34
2023-04-02T05:57:13.259Z,94743.94
2023-04-02T05:59:43.590Z,94739.72
2023-04-02T06:02:23.079Z,94745.09
2023-04-02T06:04:57.758Z,94746.50
2023-04-02T06:07:29.642Z,94743.34
2023-04-02T06:10:03.161Z,94752.97
2023-04-02T06:12:53.399Z,94752.63
2023-04-02T06:15:21.911Z,94751.63
2023-04-02T06:17:53.343Z,94746.50
2023-04-02T06:20:20.887Z,94751.03
2023-04-02T06:22:50.091Z,94759.53
2023-04-02T06:25:24.320Z,94746.56
2023-04-02T06:27:51.838Z,94750.59
2023-04-02T06:30:25.273Z,94754.75
2023-04-02T06:32:51.888Z,94755.78
2023-04-02T06:35:18.524Z,94764.84
2023-04-02T06:37:48.154Z,94762.97
2023-04-02T06:40:28.616Z,94762.63
2023-04-02T06:42:56.485Z,94763.06
2023-04-02T06:45:28.542Z,94772.75
2023-04-02T06:47:57.411Z,94774.00
2023-04-02T06:50:27.976Z,94768.00
2023-04-02T06:53:00.161Z,94771.81
2023-04-02T06:55:50.918Z,94771.22
2023-04-02T06:58:17.967Z,94780.03
2023-04-02T07:00:46.811Z,94782.53
2023-04-02T07:03:28.109Z,94783.88
2023-04-02T07:05:55.042Z,94785.25
2023-04-02T07:08:21.945Z,94788.31
2023-04-02T07:10:48.558Z,94782.50
2023-04-02T07:13:24.831Z,94790.38
2023-04-02T07:15:56.206Z,94788.13
2023-04-02T07:18:28.995Z,94796.84
2023-04-02T07:20:59.110Z,94792.03
2023-04-02T07:23:26.203Z,94799.97
2023-04-02T07:25:54.477Z,94796.66
2023-04-02T07:28:22.900Z,94803.09
2023-04-02T07:30:53.061Z,94807.56
2023-04-02T07:33:27.233Z,94801.03
2023-04-02T07:35:55.044Z,94800.28
2023-04-02T07:38:21.613Z,94809.88
2023-04-02T07:40:48.402Z,94813.56
2023-04-02T07:43:16.496Z,94811.31
2023-04-02T07:45:43.137Z,94827.22
2023-04-02T07:48:11.618Z,94826.97
2023-04-02T07:50:38.125Z,94834.69
2023-04-02T07:53:05.028Z,94828.69
2023-04-02T07:55:31.525Z,94827.56
2023-04-02T07:57:59.147Z,94828.22
2023-04-02T08:00:27.048Z,94824.72
2023-04-02T08:02:53.923Z,94832.28
2023-04-02T08:05:20.599Z,94834.50
2023-04-02T08:07:54.876Z,94837.06
2023-04-02T08:10:21.536Z,94832.41
2023-04-02T08:12:48.099Z,94821.66
2023-04-02T08:15:15.498Z,94838.19
2023-04-02T08:17:42.721Z,94833.59
2023-04-02T08:20:21.213Z,94834.94
2023-04-02T08:22:48.712Z,94831.88
2023-04-02T08:25:15.885Z,94837.28
2023-04-02T08:27:42.501Z,94839.44
2023-04-02T08:30:11.235Z,94839.91
2023-04-02T08:32:37.856Z,94845.31
2023-04-02T08:35:04.732Z,94837.72
2023-04-02T08:37:31.246Z,94834.06
2023-04-02T08:39:57.754Z,94839.19
2023-04-02T08:42:41.362Z,94849.56
2023-04-02T08:45:42.073Z,94844.22
2023-04-02T08:48:10.624Z,94845.53
2023-04-02T08:50:42.186Z,94854.47
2023-04-02T08:53:20.134Z,94858.84
2023-04-02T08:56:14.500Z,94861.75
2023-04-02T08:58:49.083Z,94851.88
2023-04-02T09:01:47.714Z,94858.59
2023-04-02T09:04:21.274Z,94855.94
2023-04-02T09:06:48.376Z,94860.22
2023-04-02T09:09:15.688Z,94858.63
2023-04-02T09:11:58.766Z,94866.34
2023-04-02T09:14:43.519Z,94862.06
2023-04-02T09:17:18.016Z,94864.50
2023-04-02T09:19:52.532Z,94874.28
2023-04-02T09:22:22.005Z,94870.41
2023-04-02T09:24:59.629Z,94883.38
2023-04-02T09:27:28.982Z,94882.97
2023-04-02T09:29:58.326Z,94885.81
2023-04-02T09:32:37.364Z,94894.38
2023-04-02T09:35:22.446Z,94894.41
2023-04-02T09:38:07.774Z,94897.22
2023-04-02T09:41:03.375Z,94884.31
2023-04-02T09:43:32.488Z,94900.72
2023-04-02T09:46:20.811Z,94894.75
2023-04-02T09:48:53.901Z,94897.00
2023-04-02T09:51:24.540Z,94903.22
2023-04-02T09:54:08.579Z,94904.72
2023-04-02T09:56:36.826Z,94910.44
2023-04-02T09:59:13.799Z,94910.69
2023-04-02T10:01:42.504Z,94913.47
2023-04-02T10:04:34.114Z,94920.34
2023-04-02T10:07:00.660Z,94927.91
2023-04-02T10:09:35.209Z,94921.88
2023-04-02T10:12:03.499Z,94920.81
2023-04-02T10:14:34.418Z,94922.22
2023-04-02T10:17:21.143Z,94928.09
2023-04-02T10:19:53.391Z,94925.09
2023-04-02T10:22:21.768Z,94924.25
2023-04-02T10:24:48.998Z,94930.94
2023-04-02T10:27:38.605Z,94932.66
2023-04-02T10:30:09.408Z,94930.38
2023-04-02T10:33:01.681Z,94937.47
2023-04-02T10:35:54.919Z,94942.88
2023-04-02T10:38:29.845Z,94935.47
2023-04-02T10:40:59.812Z,94946.03
2023-04-02T10:43:41.629Z,94944.38
2023-04-02T10:46:30.098Z,94941.03
2023-04-02T10:49:08.970Z,94950.16
2023-04-02T10:51:43.058Z,94944.09
2023-04-02T10:54:33.168Z,94950.63
2023-04-02T10:57:14.625Z,94950.59
2023-04-02T10:59:52.093Z,94952.34
2023-04-02T11:02:51.284Z,94957.81
2023-04-02T11:05:23.033Z,94962.44
2023-04-02T11:07:59.982Z,94957.31
2023-04-02T11:10:30.126Z,94948.41
2023-04-02T11:12:57.998Z,94956.47
2023-04-02T11:15:28.804Z,94961.34
2023-04-02T11:17:55.436Z,94961.84
2023-04-02T11:20:49.892Z,94955.34
2023-04-02T11:23:20.565Z,94968.94
2023-04-02T11:25:47.790Z,94963.16
2023-04-02T11:28:27.586Z,94964.94
2023-04-02T11:30:54.820Z,94971.41
2023-04-02T11:33:46.127Z,94970.16
2023-04-02T11:36:50.750Z,94973.78
2023-04-02T11:39:52.045Z,94973.78
2023-04-02T11:42:18.571Z,94978.00
2023-04-02T11:44:45.455Z,94977.91
2023-04-02T11:47:18.757Z,94982.25
2023-04-02T11:49:59.684Z,94976.78
2023-04-02T11:52:27.724Z,94988.59
2023-04-02T11:55:01.372Z,94985.84
2023-04-02T11:58:05.609Z,94998.44
2023-04-02T12:00:37.572Z,94997.09
2023-04-02T12:03:25.842Z,94994.53
2023-04-02T12:06:04.165Z,94997.63
2023-04-02T12:08:50.836Z,94995.75
2023-04-02T12:11:38.495Z,94993.75
2023-04-02T12:14:30.589Z,95004.53
2023-04-02T12:16:58.074Z,94995.94
2023-04-02T12:19:25.034Z,95011.50
2023-04-02T12:21:52.457Z,95012.13
2023-04-02T12:24:23.907Z,95013.22
2023-04-02T12:27:10.930Z,95008.28
2023-04-02T12:29:37.467Z,95018.38
2023-04-02T12:32:04.046Z,95008.34
2023-04-02T12:34:30.790Z,95004.97
2023-04-02T12:37:02.218Z,95017.59
2023-04-02T12:39:32.748Z,95013.13
2023-04-02T12:41:59.439Z,95008.63
2023-04-02T12:44:28.191Z,95008.81
2023-04-02T12:46:55.607Z,95015.84
2023-04-02T12:49:41.487Z,95009.91
2023-04-02T12:52:34.453Z,95013.38
2023-04-02T12:55:02.634Z,95011.75
2023-04-02T12:57:29.128Z,95012.94
2023-04-02T13:00:01.756Z,95009.44
2023-04-02T13:02:33.526Z,95011.50
2023-04-02T13:05:01.712Z,95013.88
2023-04-02T13:07:32.687Z,95017.34
2023-04-02T13:10:22.645Z,95003.25
2023-04-02T13:13:03.726Z,95007.06
2023-04-02T13:15:32.617Z,95009.72
2023-04-02T13:18:21.406Z,95020.13
2023-04-02T13:21:01.748Z,95020.56
2023-04-02T13:23:31.094Z,95015.25
2023-04-02T13:25:58.729Z,95020.31
2023-04-02T13:28:25.515Z,95010.72
2023-04-02T13:30:52.122Z,95012.41
2023-04-02T13:33:18.663Z,95020.50
2023-04-02T13:35:45.247Z,95011.66
2023-04-02T13:38:11.752Z,95017.16
2023-04-02T13:40:38.407Z,95013.47
2023-04-02T13:43:10.475Z,95010.84
2023-04-02T13:45:38.476Z,95013.00
2023-04-02T13:48:05.923Z,95014.50
2023-04-02T13:50:34.754Z,95019.66
2023-04-02T13:53:09.680Z,95012.41
2023-04-02T13:55:40.426Z,95008.28
2023-04-02T13:58:06.945Z,95008.16
2023-04-02T14:00:35.578Z,95008.25
2023-04-02T14:03:12.408Z,95008.41
2023-04-02T14:05:48.079Z,95012.94
2023-04-02T14:08:23.602Z,95014.97
2023-04-02T14:10:53.851Z,95016.22
2023-04-02T14:13:23.382Z,95013.06
2023-04-02T14:16:11.205Z,95006.53
2023-04-02T14:18:53.455Z,95017.19
2023-04-02T14:21:26.067Z,95019.13
2023-04-02T14:24:04.807Z,95015.72
2023-04-02T14:26:53.050Z,95022.66
2023-04-02T14:29:19.424Z,95020.19
2023-04-02T14:32:02.972Z,95027.19
2023-04-02T14:34:41.903Z,95022.41
2023-04-02T14:37:33.790Z,95026.41
2023-04-02T14:40:13.488Z,95029.47
2023-04-02T14:42:50.981Z,95033.66
2023-04-02T14:45:42.498Z,95037.47
2023-04-02T14:48:46.348Z,95045.44
2023-04-02T14:51:34.051Z,95033.00
2023-04-02T14:54:19.360Z,95042.94
2023-04-02T14:57:10.394Z,95045.56
2023-04-02T14:59:49.253Z,95038.94
2023-04-02T15:02:40.857Z,95050.81
2023-04-02T15:05:42.764Z,95038.00
2023-04-02T15:08:36.824Z,95048.34
2023-04-02T15:11:34.046Z,95048.28
2023-04-02T15:14:06.362Z,95050.13
2023-04-02T15:16:33.478Z,95053.91
2023-04-02T15:19:00.689Z,95046.28
2023-04-02T15:21:59.020Z,95049.66
2023-04-02T15:24:35.523Z,95047.16
2023-04-02T15:27:48.415Z,95054.50
2023-04-02T15:30:20.650Z,95058.44
2023-04-02T15:32:50.273Z,95053.53
2023-04-02T15:35:47.771Z,95055.75
2023-04-02T15:38:31.666Z,95049.38
2023-04-02T15:41:29.795Z,95049.81
2023-04-02T15:44:25.836Z,95054.00
2023-04-02T15:47:43.575Z,95052.19
2023-04-02T15:50:44.096Z,95050.84
2023-04-02T15:53:29.880Z,95046.44
2023-04-02T15:56:08.725Z,95044.75
2023-04-02T15:58:44.368Z,95051.66
2023-04-02T16:01:39.775Z,95057.88
2023-04-02T16:04:54.874Z,95052.88
2023-04-02T16:07:47.513Z,95054.69
2023-04-02T16:13:43.811Z,95059.25
2023-04-02T16:16:25.089Z,95064.94
2023-04-02T16:19:30.669Z,95055.56
2023-04-02T16:23:11.789Z,95064.59
2023-04-02T16:25:20.414Z,95070.19
2023-04-02T16:28:24.833Z,95073.03
2023-04-02T16:31:06.947Z,95073.25
2023-04-02T16:33:43.706Z,95075.59
2023-04-02T16:36:32.218Z,95084.94
2023-04-02T16:39:03.981Z,95092.25
2023-04-02T16:42:00.033Z,95093.41
2023-04-02T16:44:34.929Z,95095.09
2023-04-02T16:47:05.624Z,95092.34
2023-04-02T16:49:47.299Z,95100.31
2023-04-02T16:52:27.472Z,95102.31
2023-04-02T16:54:53.856Z,95110.38
2023-04-02T16:57:55.656Z,95104.59
2023-04-02T17:00:32.508Z,95120.44
2023-04-02T17:03:17.633Z,95123.38
2023-04-02T17:05:55.709Z,95117.16
2023-04-02T17:08:36.665Z,95125.00
2023-04-02T17:11:15.019Z,95121.78
2023-04-02T17:13:53.042Z,95122.25
2023-04-02T17:16:37.245Z,95125.94
2023-04-02T17:19:09.679Z,95133.00
2023-04-02T17:21:36.513Z,95131.53
2023-04-02T17:24:15.078Z,95133.38
2023-04-02T17:26:42.020Z,95135.88
2023-04-02T17:29:09.793Z,95134.06
2023-04-02T17:31:37.251Z,95143.59
2023-04-02T17:34:14.549Z,95140.28
2023-04-02T17:36:46.910Z,95145.69
2023-04-02T17:39:49.056Z,95139.03
2023-04-02T17:42:35.935Z,95154.16
2023-04-02T17:45:04.929Z,95154.97
2023-04-02T17:47:46.552Z,95155.22
2023-04-02T17:50:41.127Z,95158.56
2023-04-02T17:53:11.667Z,95161.09
2023-04-02T17:55:56.925Z,95161.66
2023-04-02T17:58:43.755Z,95161.97
2023-04-02T18:01:22.083Z,95166.38
2023-04-02T18:03:48.510Z,95164.38
2023-04-02T18:06:26.975Z,95160.34
2023-04-02T18:09:14.509Z,95175.22
2023-04-02T18:12:02.822Z,95175.38
2023-04-02T18:14:48.084Z,95174.84
2023-04-02T18:17:26.926Z,95177.16
2023-04-02T18:20:27.864Z,95172.81
2023-04-02T18:23:28.330Z,95183.47
2023-04-02T18:26:17.028Z,95184.00
2023-04-02T18:29:05.900Z,95176.78
2023-04-02T18:31:58.742Z,95193.31
2023-04-02T18:34:37.343Z,95188.91
2023-04-02T18:37:19.960Z,95192.06
2023-04-02T18:40:21.895Z,95199.78
2023-04-02T18:42:54.546Z,95205.47
2023-04-02T18:45:52.208Z,95208.16
2023-04-02T18:48:39.446Z,95208.25
2023-04-02T18:51:14.199Z,95205.06
2023-04-02T18:53:41.101Z,95213.75
2023-04-02T18:56:12.072Z,95217.50
2023-04-02T18:58:47.822Z,95222.50
2023-04-02T19:01:17.156Z,95206.47
2023-04-02T19:03:51.529Z,95210.66
2023-04-02T19:06:24.118Z,95215.88
2023-04-02T19:08:59.735Z,95218.97
2023-04-02T19:11:26.952Z,95220.81
2023-04-02T19:13:53.432Z,95230.28
2023-04-02T19:16:37.092Z,95228.44
2023-04-02T19:19:30.524Z,95231.47
2023-04-02T19:22:19.350Z,95239.50
2023-04-02T19:25:02.869Z,95243.84
2023-04-02T19:28:00.163Z,95243.53
2023-04-02T19:30:38.443Z,95239.53
2023-04-02T19:33:23.195Z,95243.88
2023-04-02T19:36:14.463Z,95247.59
2023-04-02T19:38:59.144Z,95253.53
2023-04-02T19:41:34.924Z,95248.50
2023-04-02T19:44:09.778Z,95254.72
2023-04-02T19:46:38.050Z,95264.78
2023-04-02T19:49:10.050Z,95258.56
2023-04-02T19:51:36.534Z,95267.41
2023-04-02T19:54:03.179Z,95267.78
2023-04-02T19:56:29.790Z,95265.81
2023-04-02T19:58:56.816Z,95268.63
2023-04-02T20:01:24.849Z,95273.63
2023-04-02T20:03:53.929Z,95273.72
2023-04-02T20:06:20.475Z,95279.00
2023-04-02T20:08:46.985Z,95271.94
2023-04-02T20:11:13.494Z,95282.94
2023-04-02T20:13:39.964Z,95281.06
2023-04-02T20:16:06.558Z,95282.69
2023-04-02T20:18:33.660Z,95278.69
2023-04-02T20:21:04.775Z,95287.09
2023-04-02T20:23:31.272Z,95289.31
2023-04-02T20:25:57.800Z,95282.16
2023-04-02T20:28:25.505Z,95283.56
2023-04-02T20:30:52.652Z,95281.81
2023-04-02T20:33:22.425Z,95288.78
2023-04-02T20:35:50.058Z,95295.50
2023-04-02T20:38:17.078Z,95293.81
2023-04-02T20:40:44.194Z,95293.84
2023-04-02T20:43:11.002Z,95293.56
2023-04-02T20:45:37.797Z,95296.91
2023-04-02T20:48:04.545Z,95291.69
2023-04-02T20:50:31.242Z,95290.16
2023-04-02T20:52:58.673Z,95298.63
2023-04-02T20:55:25.289Z,95296.63
2023-04-02T20:57:52.051Z,95301.44
2023-04-02T21:00:18.846Z,95306.09
2023-04-02T21:02:56.004Z,95298.03
2023-04-02T21:05:22.625Z,95306.84
2023-04-02T21:07:49.179Z,95299.47
2023-04-02T21:10:17.227Z,95286.66
2023-04-02T21:12:43.850Z,95298.25
2023-04-02T21:15:10.500Z,95300.06
2023-04-02T21:17:37.109Z,95301.09
2023-04-02T21:20:03.889Z,95304.16
2023-04-02T21:22:30.470Z,95305.75
2023-04-02T21:24:57.373Z,95313.03
2023-04-02T21:27:23.961Z,95315.41
2023-04-02T21:29:53.147Z,95311.78
2023-04-02T21:32:21.601Z,95312.91
2023-04-02T21:34:51.287Z,95311.66
2023-04-02T21:37:17.834Z,95306.81
2023-04-02T21:39:44.356Z,95306.88
2023-04-02T21:42:12.610Z,95313.63
2023-04-02T21:44:39.236Z,95303.91
2023-04-02T21:47:06.018Z,95314.72
2023-04-02T21:49:32.706Z,95314.91
2023-04-02T21:51:59.174Z,95307.06
2023-04-02T21:54:25.670Z,95302.75
2023-04-02T21:56:52.300Z,95306.50
2023-04-02T21:59:19.344Z,95301.72
2023-04-02T22:01:48.869Z,95308.34
2023-04-02T22:04:23.580Z,95306.81
2023-04-02T22:06:51.246Z,95311.25
2023-04-02T22:09:26.716Z,95305.75
2023-04-02T22:11:55.946Z,95321.00
2023-04-02T22:14:22.895Z,95306.03
2023-04-02T22:16:49.850Z,95304.81
2023-04-02T22:19:16.636Z,95306.75
2023-04-02T22:21:43.621Z,95305.56
2023-04-02T22:24:14.198Z,95304.19
2023-04-02T22:26:41.034Z,95308.22
2023-04-02T22:29:10.805Z,95310.84
2023-04-02T22:31:37.374Z,95300.53
2023-04-02T22:34:04.840Z,95298.19
2023-04-02T22:36:33.583Z,95288.88
2023-04-02T22:39:01.056Z,95297.69
2023-04-02T22:41:28.970Z,95294.53
2023-04-02T22:43:56.505Z,95288.75
2023-04-02T22:46:26.816Z,95294.94
2023-04-02T22:48:53.762Z,95288.47
2023-04-02T22:51:21.868Z,95295.75
2023-04-02T22:53:49.013Z,95297.19
2023-04-02T22:56:18.542Z,95290.25
2023-04-02T22:58:45.380Z,95296.88
2023-04-02T23:01:18.869Z,95294.81
2023-04-02T23:03:45.442Z,95296.41
2023-04-02T23:06:14.377Z,95283.56
2023-04-02T23:08:41.546Z,95291.28
2023-04-02T23:11:12.752Z,95295.81
2023-04-02T23:13:40.553Z,95293.66
2023-04-02T23:16:10.258Z,95295.84
2023-04-02T23:18:38.356Z,95294.88
2023-04-02T23:21:05.981Z,95296.31
2023-04-02T23:23:35.847Z,95296.25
2023-04-02T23:26:03.586Z,95286.47
2023-04-02T23:28:30.238Z,95273.19
2023-04-02T23:30:56.705Z,95280.50
2023-04-02T23:33:23.187Z,95283.78
2023-04-02T23:35:49.903Z,95283.78
2023-04-02T23:38:16.415Z,95288.81
2023-04-02T23:40:42.888Z,95285.03
2023-04-02T23:43:09.436Z,95272.97
2023-04-02T23:45:35.918Z,95280.19
2023-04-02T23:48:02.448Z,95276.38
2023-04-02T23:50:29.100Z,95277.13
2023-04-02T23:52:55.749Z,95278.75
2023-04-02T23:55:22.252Z,95282.28
2023-04-02T23:57:48.722Z,95277.41
